sensor_id;sensor_type;location;lat;lon;timestamp;pressure;altitude;pressure_sealevel;temperature;humidity
72063;BME280;59929;43.546;-5.702;2022-09-21T00:01:17;102164.38;;;20.06;49.87
72063;BME280;59929;43.546;-5.702;2022-09-21T00:03:44;102177.06;;;19.97;50.18
72063;BME280;59929;43.546;-5.702;2022-09-21T00:06:13;102170.16;;;19.99;50.16
72063;BME280;59929;43.546;-5.702;2022-09-21T00:08:39;102160.78;;;20.00;50.02
72063;BME280;59929;43.546;-5.702;2022-09-21T00:11:05;102169.03;;;19.95;50.20
72063;BME280;59929;43.546;-5.702;2022-09-21T00:13:33;102169.28;;;19.89;50.09
72063;BME280;59929;43.546;-5.702;2022-09-21T00:15:59;102165.44;;;19.90;50.11
72063;BME280;59929;43.546;-5.702;2022-09-21T00:18:25;102167.06;;;19.91;49.76
72063;BME280;59929;43.546;-5.702;2022-09-21T00:20:51;102157.41;;;19.83;49.96
72063;BME280;59929;43.546;-5.702;2022-09-21T00:23:18;102151.88;;;19.78;49.71
72063;BME280;59929;43.546;-5.702;2022-09-21T00:25:44;102161.47;;;19.71;49.99
72063;BME280;59929;43.546;-5.702;2022-09-21T00:28:09;102163.44;;;19.75;49.64
72063;BME280;59929;43.546;-5.702;2022-09-21T00:30:36;102155.69;;;19.72;49.71
72063;BME280;59929;43.546;-5.702;2022-09-21T00:33:02;102157.06;;;19.70;49.74
72063;BME280;59929;43.546;-5.702;2022-09-21T00:35:28;102156.72;;;19.56;49.74
72063;BME280;59929;43.546;-5.702;2022-09-21T00:37:53;102163.34;;;19.55;49.93
72063;BME280;59929;43.546;-5.702;2022-09-21T00:40:19;102160.59;;;19.60;49.76
72063;BME280;59929;43.546;-5.702;2022-09-21T00:42:45;102157.59;;;19.62;49.85
72063;BME280;59929;43.546;-5.702;2022-09-21T00:45:11;102155.41;;;19.64;50.03
72063;BME280;59929;43.546;-5.702;2022-09-21T00:47:47;102157.28;;;19.58;49.99
72063;BME280;59929;43.546;-5.702;2022-09-21T00:50:19;102153.94;;;19.51;50.07
72063;BME280;59929;43.546;-5.702;2022-09-21T00:52:50;102150.34;;;19.51;50.10
72063;BME280;59929;43.546;-5.702;2022-09-21T00:55:21;102150.06;;;19.47;50.01
72063;BME280;59929;43.546;-5.702;2022-09-21T00:57:52;102143.72;;;19.46;50.36
72063;BME280;59929;43.546;-5.702;2022-09-21T01:00:20;102156.16;;;19.54;50.08
72063;BME280;59929;43.546;-5.702;2022-09-21T01:02:46;102155.06;;;19.55;49.92
72063;BME280;59929;43.546;-5.702;2022-09-21T01:05:11;102149.75;;;19.43;50.24
72063;BME280;59929;43.546;-5.702;2022-09-21T01:07:41;102150.31;;;19.45;50.54
72063;BME280;59929;43.546;-5.702;2022-09-21T01:10:11;102154.47;;;19.43;50.42
72063;BME280;59929;43.546;-5.702;2022-09-21T01:12:59;102151.75;;;19.58;50.02
72063;BME280;59929;43.546;-5.702;2022-09-21T01:15:50;102149.56;;;19.55;50.28
72063;BME280;59929;43.546;-5.702;2022-09-21T01:18:29;102154.97;;;19.40;50.54
72063;BME280;59929;43.546;-5.702;2022-09-21T01:21:18;102147.81;;;19.44;50.49
72063;BME280;59929;43.546;-5.702;2022-09-21T01:24:11;102144.22;;;19.43;50.20
72063;BME280;59929;43.546;-5.702;2022-09-21T01:32:26;102143.84;;;19.30;50.45
72063;BME280;59929;43.546;-5.702;2022-09-21T01:35:00;102141.09;;;19.30;50.34
72063;BME280;59929;43.546;-5.702;2022-09-21T01:37:34;102137.81;;;19.33;50.61
72063;BME280;59929;43.546;-5.702;2022-09-21T01:40:07;102137.78;;;19.28;50.73
72063;BME280;59929;43.546;-5.702;2022-09-21T01:42:38;102139.56;;;19.07;50.97
72063;BME280;59929;43.546;-5.702;2022-09-21T01:45:06;102137.66;;;19.08;51.19
72063;BME280;59929;43.546;-5.702;2022-09-21T01:47:35;102139.81;;;19.01;50.77
72063;BME280;59929;43.546;-5.702;2022-09-21T01:50:05;102143.34;;;18.96;51.30
72063;BME280;59929;43.546;-5.702;2022-09-21T01:52:44;102140.38;;;19.03;50.88
72063;BME280;59929;43.546;-5.702;2022-09-21T01:55:24;102135.97;;;19.07;51.09
72063;BME280;59929;43.546;-5.702;2022-09-21T01:58:11;102135.41;;;19.05;51.09
72063;BME280;59929;43.546;-5.702;2022-09-21T02:00:41;102132.38;;;19.06;50.98
72063;BME280;59929;43.546;-5.702;2022-09-21T02:03:17;102128.28;;;19.09;51.26
72063;BME280;59929;43.546;-5.702;2022-09-21T02:05:46;102136.53;;;19.09;51.02
72063;BME280;59929;43.546;-5.702;2022-09-21T02:08:11;102136.28;;;19.10;51.04
72063;BME280;59929;43.546;-5.702;2022-09-21T02:10:43;102133.00;;;19.13;51.56
72063;BME280;59929;43.546;-5.702;2022-09-21T02:13:10;102134.06;;;19.07;51.32
72063;BME280;59929;43.546;-5.702;2022-09-21T02:15:53;102135.41;;;19.00;52.08
72063;BME280;59929;43.546;-5.702;2022-09-21T02:19:02;102131.47;;;18.91;52.13
72063;BME280;59929;43.546;-5.702;2022-09-21T02:21:55;102120.66;;;18.84;52.32
72063;BME280;59929;43.546;-5.702;2022-09-21T02:24:39;102128.34;;;18.77;51.94
72063;BME280;59929;43.546;-5.702;2022-09-21T02:27:31;102126.50;;;18.56;52.74
72063;BME280;59929;43.546;-5.702;2022-09-21T02:30:25;102132.66;;;18.41;52.79
72063;BME280;59929;43.546;-5.702;2022-09-21T02:38:36;102131.31;;;17.91;54.35
72063;BME280;59929;43.546;-5.702;2022-09-21T02:41:13;102127.53;;;17.75;55.01
72063;BME280;59929;43.546;-5.702;2022-09-21T02:43:48;102123.69;;;17.54;55.90
72063;BME280;59929;43.546;-5.702;2022-09-21T02:46:19;102120.25;;;17.64;55.66
72063;BME280;59929;43.546;-5.702;2022-09-21T02:48:50;102115.66;;;17.69;55.15
72063;BME280;59929;43.546;-5.702;2022-09-21T02:51:21;102112.50;;;17.61;55.51
72063;BME280;59929;43.546;-5.702;2022-09-21T02:53:49;102115.34;;;17.66;55.13
72063;BME280;59929;43.546;-5.702;2022-09-21T02:56:16;102116.88;;;17.57;55.88
72063;BME280;59929;43.546;-5.702;2022-09-21T02:58:48;102119.03;;;17.55;55.68
72063;BME280;59929;43.546;-5.702;2022-09-21T03:01:15;102114.44;;;17.44;56.31
72063;BME280;59929;43.546;-5.702;2022-09-21T03:03:42;102112.22;;;17.41;56.10
72063;BME280;59929;43.546;-5.702;2022-09-21T03:06:08;102113.09;;;17.25;56.73
72063;BME280;59929;43.546;-5.702;2022-09-21T03:08:33;102116.63;;;17.20;57.20
72063;BME280;59929;43.546;-5.702;2022-09-21T03:10:59;102117.03;;;17.12;57.42
72063;BME280;59929;43.546;-5.702;2022-09-21T03:13:25;102093.34;;;16.40;59.08
72063;BME280;59929;43.546;-5.702;2022-09-21T03:15:59;102106.34;;;16.77;58.61
72063;BME280;59929;43.546;-5.702;2022-09-21T03:18:26;102112.50;;;16.84;58.61
72063;BME280;59929;43.546;-5.702;2022-09-21T03:20:51;102111.66;;;16.84;58.14
72063;BME280;59929;43.546;-5.702;2022-09-21T03:23:17;102112.16;;;16.64;59.28
72063;BME280;59929;43.546;-5.702;2022-09-21T03:25:43;102112.38;;;16.46;59.86
72063;BME280;59929;43.546;-5.702;2022-09-21T03:28:10;102103.69;;;16.49;60.11
72063;BME280;59929;43.546;-5.702;2022-09-21T03:30:38;102101.03;;;16.54;59.96
72063;BME280;59929;43.546;-5.702;2022-09-21T03:33:03;102100.94;;;16.49;59.99
72063;BME280;59929;43.546;-5.702;2022-09-21T03:35:30;102096.63;;;16.25;60.50
72063;BME280;59929;43.546;-5.702;2022-09-21T03:37:58;102096.13;;;16.28;60.58
72063;BME280;59929;43.546;-5.702;2022-09-21T03:40:24;102092.94;;;16.03;61.24
72063;BME280;59929;43.546;-5.702;2022-09-21T03:42:51;102096.03;;;16.06;61.11
72063;BME280;59929;43.546;-5.702;2022-09-21T03:45:17;102089.44;;;16.07;60.70
72063;BME280;59929;43.546;-5.702;2022-09-21T03:47:43;102096.09;;;15.95;61.36
72063;BME280;59929;43.546;-5.702;2022-09-21T03:50:09;102091.19;;;15.97;61.33
72063;BME280;59929;43.546;-5.702;2022-09-21T03:52:35;102093.09;;;15.96;61.55
72063;BME280;59929;43.546;-5.702;2022-09-21T03:55:02;102096.38;;;15.82;62.19
72063;BME280;59929;43.546;-5.702;2022-09-21T03:57:31;102089.72;;;15.78;62.85
72063;BME280;59929;43.546;-5.702;2022-09-21T03:59:59;102086.84;;;15.73;62.79
72063;BME280;59929;43.546;-5.702;2022-09-21T04:02:25;102090.88;;;15.82;62.41
72063;BME280;59929;43.546;-5.702;2022-09-21T04:04:50;102080.25;;;15.85;62.22
72063;BME280;59929;43.546;-5.702;2022-09-21T04:07:16;102079.00;;;15.76;62.54
72063;BME280;59929;43.546;-5.702;2022-09-21T04:09:41;102088.41;;;15.69;63.19
72063;BME280;59929;43.546;-5.702;2022-09-21T04:12:07;102080.94;;;15.64;63.03
72063;BME280;59929;43.546;-5.702;2022-09-21T04:14:33;102079.78;;;15.48;63.61
72063;BME280;59929;43.546;-5.702;2022-09-21T04:16:59;102088.13;;;15.54;63.58
72063;BME280;59929;43.546;-5.702;2022-09-21T04:19:24;102080.97;;;15.53;63.88
72063;BME280;59929;43.546;-5.702;2022-09-21T04:21:50;102083.63;;;15.48;63.91
72063;BME280;59929;43.546;-5.702;2022-09-21T04:24:17;102090.41;;;15.33;64.77
72063;BME280;59929;43.546;-5.702;2022-09-21T04:26:44;102073.38;;;15.43;64.12
72063;BME280;59929;43.546;-5.702;2022-09-21T04:29:12;102090.38;;;15.57;63.38
72063;BME280;59929;43.546;-5.702;2022-09-21T04:31:38;102095.06;;;15.44;63.83
72063;BME280;59929;43.546;-5.702;2022-09-21T04:34:04;102088.53;;;15.45;63.97
72063;BME280;59929;43.546;-5.702;2022-09-21T04:36:30;102096.09;;;15.55;63.57
72063;BME280;59929;43.546;-5.702;2022-09-21T04:38:59;102094.47;;;15.42;63.79
72063;BME280;59929;43.546;-5.702;2022-09-21T04:41:25;102093.38;;;15.43;63.63
72063;BME280;59929;43.546;-5.702;2022-09-21T04:43:51;102099.78;;;15.37;64.02
72063;BME280;59929;43.546;-5.702;2022-09-21T04:46:18;102099.56;;;15.39;64.17
72063;BME280;59929;43.546;-5.702;2022-09-21T04:48:44;102099.69;;;15.21;64.66
72063;BME280;59929;43.546;-5.702;2022-09-21T04:51:11;102096.75;;;15.11;64.84
72063;BME280;59929;43.546;-5.702;2022-09-21T04:53:38;102097.72;;;15.16;65.06
72063;BME280;59929;43.546;-5.702;2022-09-21T04:56:06;102093.88;;;15.17;65.04
72063;BME280;59929;43.546;-5.702;2022-09-21T04:58:32;102100.31;;;15.11;65.55
72063;BME280;59929;43.546;-5.702;2022-09-21T05:00:58;102089.88;;;15.08;65.54
72063;BME280;59929;43.546;-5.702;2022-09-21T05:03:25;102084.72;;;15.00;65.57
72063;BME280;59929;43.546;-5.702;2022-09-21T05:05:53;102079.75;;;14.97;65.83
72063;BME280;59929;43.546;-5.702;2022-09-21T05:08:19;102090.56;;;14.92;66.37
72063;BME280;59929;43.546;-5.702;2022-09-21T05:10:59;102089.72;;;15.03;65.96
72063;BME280;59929;43.546;-5.702;2022-09-21T05:13:25;102081.75;;;14.90;66.31
72063;BME280;59929;43.546;-5.702;2022-09-21T05:15:50;102082.72;;;14.84;66.65
72063;BME280;59929;43.546;-5.702;2022-09-21T05:18:16;102082.94;;;14.94;65.82
72063;BME280;59929;43.546;-5.702;2022-09-21T05:20:42;102092.00;;;14.95;65.84
72063;BME280;59929;43.546;-5.702;2022-09-21T05:23:07;102090.69;;;14.97;65.75
72063;BME280;59929;43.546;-5.702;2022-09-21T05:25:33;102096.28;;;15.02;65.61
72063;BME280;59929;43.546;-5.702;2022-09-21T05:27:58;102096.53;;;14.89;66.38
72063;BME280;59929;43.546;-5.702;2022-09-21T05:30:24;102094.38;;;14.91;66.59
72063;BME280;59929;43.546;-5.702;2022-09-21T05:32:57;102092.59;;;14.74;66.66
72063;BME280;59929;43.546;-5.702;2022-09-21T05:35:41;102088.78;;;14.86;66.04
72063;BME280;59929;43.546;-5.702;2022-09-21T05:38:15;102103.19;;;14.93;65.72
72063;BME280;59929;43.546;-5.702;2022-09-21T05:40:42;102100.34;;;14.65;66.56
72063;BME280;59929;43.546;-5.702;2022-09-21T05:43:10;102108.66;;;14.70;66.78
72063;BME280;59929;43.546;-5.702;2022-09-21T05:45:40;102110.19;;;14.66;66.76
72063;BME280;59929;43.546;-5.702;2022-09-21T05:48:26;102103.31;;;14.75;66.75
72063;BME280;59929;43.546;-5.702;2022-09-21T05:51:02;102100.69;;;14.80;66.99
72063;BME280;59929;43.546;-5.702;2022-09-21T05:53:47;102098.66;;;14.76;66.68
72063;BME280;59929;43.546;-5.702;2022-09-21T05:56:42;102091.78;;;14.73;66.88
72063;BME280;59929;43.546;-5.702;2022-09-21T06:05:00;102088.19;;;14.73;66.50
72063;BME280;59929;43.546;-5.702;2022-09-21T06:07:27;102098.66;;;14.64;66.93
72063;BME280;59929;43.546;-5.702;2022-09-21T06:09:53;102100.06;;;14.55;67.26
72063;BME280;59929;43.546;-5.702;2022-09-21T06:12:18;102101.34;;;14.41;67.95
72063;BME280;59929;43.546;-5.702;2022-09-21T06:14:44;102096.53;;;14.54;67.30
72063;BME280;59929;43.546;-5.702;2022-09-21T06:17:10;102099.75;;;14.75;66.63
72063;BME280;59929;43.546;-5.702;2022-09-21T06:19:35;102096.41;;;14.73;66.57
72063;BME280;59929;43.546;-5.702;2022-09-21T06:22:01;102107.59;;;14.71;66.56
72063;BME280;59929;43.546;-5.702;2022-09-21T06:24:26;102099.84;;;14.80;66.03
72063;BME280;59929;43.546;-5.702;2022-09-21T06:26:52;102094.72;;;14.72;66.76
72063;BME280;59929;43.546;-5.702;2022-09-21T06:29:18;102102.97;;;14.83;66.09
72063;BME280;59929;43.546;-5.702;2022-09-21T06:31:49;102107.47;;;14.89;66.01
72063;BME280;59929;43.546;-5.702;2022-09-21T06:34:16;102109.03;;;14.97;65.43
72063;BME280;59929;43.546;-5.702;2022-09-21T06:36:41;102105.31;;;14.80;66.18
72063;BME280;59929;43.546;-5.702;2022-09-21T06:39:07;102110.00;;;14.79;66.40
72063;BME280;59929;43.546;-5.702;2022-09-21T06:41:33;102109.97;;;14.67;66.86
72063;BME280;59929;43.546;-5.702;2022-09-21T06:43:58;102106.06;;;14.75;66.66
72063;BME280;59929;43.546;-5.702;2022-09-21T06:46:24;102119.50;;;14.77;66.70
72063;BME280;59929;43.546;-5.702;2022-09-21T06:48:49;102119.38;;;14.83;66.43
72063;BME280;59929;43.546;-5.702;2022-09-21T06:51:15;102119.75;;;14.87;66.51
72063;BME280;59929;43.546;-5.702;2022-09-21T06:53:41;102126.41;;;14.79;66.82
72063;BME280;59929;43.546;-5.702;2022-09-21T06:56:08;102122.13;;;14.95;66.66
72063;BME280;59929;43.546;-5.702;2022-09-21T06:58:35;102126.63;;;15.01;66.46
72063;BME280;59929;43.546;-5.702;2022-09-21T07:01:06;102128.81;;;15.10;66.19
72063;BME280;59929;43.546;-5.702;2022-09-21T07:03:32;102123.91;;;15.12;66.31
72063;BME280;59929;43.546;-5.702;2022-09-21T07:05:57;102121.38;;;15.34;65.62
72063;BME280;59929;43.546;-5.702;2022-09-21T07:08:23;102113.53;;;15.49;65.21
72063;BME280;59929;43.546;-5.702;2022-09-21T07:10:49;102118.66;;;15.45;64.94
72063;BME280;59929;43.546;-5.702;2022-09-21T07:13:14;102115.31;;;15.32;65.82
72063;BME280;59929;43.546;-5.702;2022-09-21T07:15:42;102109.94;;;15.48;65.48
72063;BME280;59929;43.546;-5.702;2022-09-21T07:18:12;102115.38;;;15.72;65.02
72063;BME280;59929;43.546;-5.702;2022-09-21T07:20:39;102106.75;;;15.80;64.54
72063;BME280;59929;43.546;-5.702;2022-09-21T07:23:13;102108.66;;;15.79;64.80
72063;BME280;59929;43.546;-5.702;2022-09-21T07:25:40;102102.31;;;15.90;64.48
72063;BME280;59929;43.546;-5.702;2022-09-21T07:28:07;102103.34;;;16.01;64.58
72063;BME280;59929;43.546;-5.702;2022-09-21T07:30:33;102109.66;;;16.18;64.78
72063;BME280;59929;43.546;-5.702;2022-09-21T07:32:58;102107.63;;;16.42;63.73
72063;BME280;59929;43.546;-5.702;2022-09-21T07:35:24;102103.06;;;16.47;64.13
72063;BME280;59929;43.546;-5.702;2022-09-21T07:37:49;102096.13;;;16.56;63.42
72063;BME280;59929;43.546;-5.702;2022-09-21T07:40:15;102100.44;;;16.52;64.12
72063;BME280;59929;43.546;-5.702;2022-09-21T07:42:41;102099.19;;;16.76;63.23
72063;BME280;59929;43.546;-5.702;2022-09-21T07:45:09;102099.44;;;16.91;62.63
72063;BME280;59929;43.546;-5.702;2022-09-21T07:47:35;102095.97;;;17.18;61.57
72063;BME280;59929;43.546;-5.702;2022-09-21T07:50:01;102095.06;;;17.34;61.41
72063;BME280;59929;43.546;-5.702;2022-09-21T07:52:26;102089.28;;;17.52;61.12
72063;BME280;59929;43.546;-5.702;2022-09-21T07:54:52;102092.59;;;17.54;61.32
72063;BME280;59929;43.546;-5.702;2022-09-21T07:57:18;102096.97;;;17.71;60.70
72063;BME280;59929;43.546;-5.702;2022-09-21T08:00:00;102092.72;;;17.85;59.90
72063;BME280;59929;43.546;-5.702;2022-09-21T08:02:25;102094.75;;;17.95;59.61
72063;BME280;59929;43.546;-5.702;2022-09-21T08:04:51;102088.53;;;18.05;59.16
72063;BME280;59929;43.546;-5.702;2022-09-21T08:07:17;102089.88;;;18.29;58.28
72063;BME280;59929;43.546;-5.702;2022-09-21T08:09:43;102083.91;;;18.10;57.59
72063;BME280;59929;43.546;-5.702;2022-09-21T08:12:09;102094.06;;;18.36;57.43
72063;BME280;59929;43.546;-5.702;2022-09-21T08:14:35;102093.00;;;18.42;56.69
72063;BME280;59929;43.546;-5.702;2022-09-21T08:17:00;102090.72;;;18.61;56.02
72063;BME280;59929;43.546;-5.702;2022-09-21T08:19:26;102091.59;;;18.66;54.85
72063;BME280;59929;43.546;-5.702;2022-09-21T08:21:52;102090.34;;;18.84;54.04
72063;BME280;59929;43.546;-5.702;2022-09-21T08:24:18;102085.22;;;18.98;53.35
72063;BME280;59929;43.546;-5.702;2022-09-21T08:26:44;102090.25;;;19.11;53.20
72063;BME280;59929;43.546;-5.702;2022-09-21T08:29:10;102093.09;;;19.26;52.67
72063;BME280;59929;43.546;-5.702;2022-09-21T08:31:38;102096.22;;;19.34;52.30
72063;BME280;59929;43.546;-5.702;2022-09-21T08:34:04;102099.25;;;19.38;52.31
72063;BME280;59929;43.546;-5.702;2022-09-21T08:36:30;102093.38;;;19.29;51.93
72063;BME280;59929;43.546;-5.702;2022-09-21T08:38:55;102110.75;;;19.30;52.01
72063;BME280;59929;43.546;-5.702;2022-09-21T08:41:24;102107.25;;;19.34;52.06
72063;BME280;59929;43.546;-5.702;2022-09-21T08:43:57;102105.06;;;19.41;51.97
72063;BME280;59929;43.546;-5.702;2022-09-21T08:46:27;102108.69;;;19.47;51.40
72063;BME280;59929;43.546;-5.702;2022-09-21T08:49:00;102108.94;;;19.45;51.66
72063;BME280;59929;43.546;-5.702;2022-09-21T08:51:31;102115.34;;;19.56;51.54
72063;BME280;59929;43.546;-5.702;2022-09-21T08:54:05;102116.44;;;19.60;51.39
72063;BME280;59929;43.546;-5.702;2022-09-21T08:56:35;102113.09;;;19.48;51.02
72063;BME280;59929;43.546;-5.702;2022-09-21T08:59:01;102118.84;;;19.41;51.81
72063;BME280;59929;43.546;-5.702;2022-09-21T09:01:45;102120.22;;;19.39;51.98
72063;BME280;59929;43.546;-5.702;2022-09-21T09:07:29;102115.28;;;19.46;52.25
72063;BME280;59929;43.546;-5.702;2022-09-21T09:10:18;102122.50;;;19.52;52.61
72063;BME280;59929;43.546;-5.702;2022-09-21T09:16:11;102121.44;;;19.63;53.18
72063;BME280;59929;43.546;-5.702;2022-09-21T09:18:56;102115.94;;;19.68;52.81
72063;BME280;59929;43.546;-5.702;2022-09-21T09:21:30;102119.00;;;19.72;53.55
72063;BME280;59929;43.546;-5.702;2022-09-21T09:24:08;102106.88;;;19.78;53.27
72063;BME280;59929;43.546;-5.702;2022-09-21T09:26:45;102108.56;;;19.84;52.94
72063;BME280;59929;43.546;-5.702;2022-09-21T09:29:34;102091.94;;;19.69;52.65
72063;BME280;59929;43.546;-5.702;2022-09-21T09:32:04;102109.09;;;19.91;53.00
72063;BME280;59929;43.546;-5.702;2022-09-21T09:34:40;102103.88;;;19.99;52.68
72063;BME280;59929;43.546;-5.702;2022-09-21T09:37:12;102108.91;;;20.17;52.53
72063;BME280;59929;43.546;-5.702;2022-09-21T09:39:40;102107.03;;;20.23;52.31
72063;BME280;59929;43.546;-5.702;2022-09-21T09:50:41;102096.28;;;20.32;52.43
72063;BME280;59929;43.546;-5.702;2022-09-21T09:53:13;102099.03;;;20.32;52.48
72063;BME280;59929;43.546;-5.702;2022-09-21T09:55:41;102091.31;;;20.44;52.30
72063;BME280;59929;43.546;-5.702;2022-09-21T09:58:34;102098.22;;;20.46;52.70
72063;BME280;59929;43.546;-5.702;2022-09-21T10:01:03;102095.44;;;20.51;52.58
72063;BME280;59929;43.546;-5.702;2022-09-21T10:03:29;102095.44;;;20.61;52.57
72063;BME280;59929;43.546;-5.702;2022-09-21T10:05:54;102091.56;;;20.57;52.73
72063;BME280;59929;43.546;-5.702;2022-09-21T10:08:43;102100.16;;;20.61;52.87
72063;BME280;59929;43.546;-5.702;2022-09-21T10:11:13;102090.47;;;20.68;51.75
72063;BME280;59929;43.546;-5.702;2022-09-21T10:13:41;102099.03;;;20.77;52.31
72063;BME280;59929;43.546;-5.702;2022-09-21T10:16:20;102102.88;;;20.86;52.58
72063;BME280;59929;43.546;-5.702;2022-09-21T10:19:01;102096.53;;;20.85;52.63
72063;BME280;59929;43.546;-5.702;2022-09-21T10:21:43;102096.22;;;20.92;52.40
72063;BME280;59929;43.546;-5.702;2022-09-21T10:24:20;102100.66;;;20.98;52.28
72063;BME280;59929;43.546;-5.702;2022-09-21T10:26:50;102088.50;;;20.99;52.27
72063;BME280;59929;43.546;-5.702;2022-09-21T10:29:37;102089.63;;;21.03;52.01
72063;BME280;59929;43.546;-5.702;2022-09-21T10:32:17;102092.09;;;21.10;52.62
72063;BME280;59929;43.546;-5.702;2022-09-21T10:35:13;102091.78;;;21.21;52.26
72063;BME280;59929;43.546;-5.702;2022-09-21T10:37:42;102090.41;;;21.29;52.33
72063;BME280;59929;43.546;-5.702;2022-09-21T10:40:24;102089.84;;;21.27;51.86
72063;BME280;59929;43.546;-5.702;2022-09-21T10:42:53;102089.56;;;21.23;51.76
72063;BME280;59929;43.546;-5.702;2022-09-21T10:45:24;102090.34;;;21.34;51.58
72063;BME280;59929;43.546;-5.702;2022-09-21T10:47:55;102081.50;;;21.37;51.55
72063;BME280;59929;43.546;-5.702;2022-09-21T10:50:27;102080.09;;;21.39;51.58
72063;BME280;59929;43.546;-5.702;2022-09-21T10:52:59;102092.53;;;21.47;51.32
72063;BME280;59929;43.546;-5.702;2022-09-21T10:55:27;102091.16;;;21.44;51.23
72063;BME280;59929;43.546;-5.702;2022-09-21T10:57:54;102082.31;;;21.42;51.78
72063;BME280;59929;43.546;-5.702;2022-09-21T11:00:31;102083.94;;;21.48;51.34
72063;BME280;59929;43.546;-5.702;2022-09-21T11:03:25;102081.19;;;21.48;52.16
72063;BME280;59929;43.546;-5.702;2022-09-21T11:05:51;102083.66;;;21.55;52.43
72063;BME280;59929;43.546;-5.702;2022-09-21T11:08:37;102081.16;;;21.53;52.71
72063;BME280;59929;43.546;-5.702;2022-09-21T11:13:59;102080.09;;;21.49;53.07
72063;BME280;59929;43.546;-5.702;2022-09-21T11:16:37;102078.34;;;21.58;53.56
72063;BME280;59929;43.546;-5.702;2022-09-21T11:22:22;102081.59;;;21.75;53.22
72063;BME280;59929;43.546;-5.702;2022-09-21T11:25:17;102073.56;;;21.84;53.73
72063;BME280;59929;43.546;-5.702;2022-09-21T11:27:52;102073.56;;;21.84;53.30
72063;BME280;59929;43.546;-5.702;2022-09-21T11:30:20;102083.75;;;21.88;53.03
72063;BME280;59929;43.546;-5.702;2022-09-21T11:33:10;102069.06;;;21.93;53.21
72063;BME280;59929;43.546;-5.702;2022-09-21T11:38:55;102064.59;;;21.97;53.47
72063;BME280;59929;43.546;-5.702;2022-09-21T11:41:36;102062.66;;;21.98;53.23
72063;BME280;59929;43.546;-5.702;2022-09-21T11:53:05;102060.97;;;22.07;53.63
72063;BME280;59929;43.546;-5.702;2022-09-21T11:56:15;102063.97;;;22.10;54.33
72063;BME280;59929;43.546;-5.702;2022-09-21T12:01:45;102060.59;;;22.18;54.06
72063;BME280;59929;43.546;-5.702;2022-09-21T12:04:28;102055.03;;;22.23;54.15
72063;BME280;59929;43.546;-5.702;2022-09-21T12:07:19;102052.50;;;22.27;53.79
72063;BME280;59929;43.546;-5.702;2022-09-21T12:10:06;102050.16;;;22.44;53.80
72063;BME280;59929;43.546;-5.702;2022-09-21T12:12:42;102053.94;;;22.58;53.68
72063;BME280;59929;43.546;-5.702;2022-09-21T12:15:21;102048.63;;;22.61;53.38
72063;BME280;59929;43.546;-5.702;2022-09-21T12:18:07;102049.69;;;22.65;53.50
72063;BME280;59929;43.546;-5.702;2022-09-21T12:20:59;102055.22;;;22.65;53.26
72063;BME280;59929;43.546;-5.702;2022-09-21T12:23:56;102047.31;;;22.49;54.04
72063;BME280;59929;43.546;-5.702;2022-09-21T12:26:26;102050.28;;;22.57;53.99
72063;BME280;59929;43.546;-5.702;2022-09-21T12:29:09;102057.47;;;22.63;54.00
72063;BME280;59929;43.546;-5.702;2022-09-21T12:31:44;102043.38;;;22.60;54.19
72063;BME280;59929;43.546;-5.702;2022-09-21T12:34:26;102046.56;;;22.72;54.28
72063;BME280;59929;43.546;-5.702;2022-09-21T12:37:10;102045.44;;;22.73;53.75
72063;BME280;59929;43.546;-5.702;2022-09-21T12:39:43;102037.31;;;22.82;53.77
72063;BME280;59929;43.546;-5.702;2022-09-21T12:42:29;102035.44;;;23.01;53.70
72063;BME280;59929;43.546;-5.702;2022-09-21T12:45:14;102033.97;;;23.08;53.33
72063;BME280;59929;43.546;-5.702;2022-09-21T12:50:55;102036.53;;;23.28;52.75
72063;BME280;59929;43.546;-5.702;2022-09-21T12:53:25;102035.66;;;23.33;52.04
72063;BME280;59929;43.546;-5.702;2022-09-21T12:56:03;102028.72;;;23.30;52.00
72063;BME280;59929;43.546;-5.702;2022-09-21T12:59:09;102030.63;;;23.35;52.00
72063;BME280;59929;43.546;-5.702;2022-09-21T13:01:44;102028.31;;;23.18;52.11
72063;BME280;59929;43.546;-5.702;2022-09-21T13:04:43;102026.53;;;23.27;51.95
72063;BME280;59929;43.546;-5.702;2022-09-21T13:12:54;102017.09;;;23.28;51.85
72063;BME280;59929;43.546;-5.702;2022-09-21T13:15:25;102014.06;;;23.25;51.29
72063;BME280;59929;43.546;-5.702;2022-09-21T13:18:02;102014.59;;;23.27;51.28
72063;BME280;59929;43.546;-5.702;2022-09-21T13:20:35;102009.03;;;23.32;50.76
72063;BME280;59929;43.546;-5.702;2022-09-21T13:23:03;102009.03;;;23.32;50.85
72063;BME280;59929;43.546;-5.702;2022-09-21T13:25:31;102007.25;;;23.41;50.68
72063;BME280;59929;43.546;-5.702;2022-09-21T13:28:05;101991.25;;;23.52;50.45
72063;BME280;59929;43.546;-5.702;2022-09-21T13:30:43;102008.38;;;23.59;50.33
72063;BME280;59929;43.546;-5.702;2022-09-21T13:33:30;101993.25;;;23.70;50.09
72063;BME280;59929;43.546;-5.702;2022-09-21T13:36:03;101989.78;;;23.78;49.93
72063;BME280;59929;43.546;-5.702;2022-09-21T13:41:35;101985.84;;;23.97;49.41
72063;BME280;59929;43.546;-5.702;2022-09-21T13:44:04;101989.31;;;24.08;49.61
72063;BME280;59929;43.546;-5.702;2022-09-21T13:46:48;101989.81;;;24.29;48.88
72063;BME280;59929;43.546;-5.702;2022-09-21T13:49:22;101994.78;;;24.45;48.26
72063;BME280;59929;43.546;-5.702;2022-09-21T13:52:00;101981.91;;;24.95;46.72
72063;BME280;59929;43.546;-5.702;2022-09-21T13:54:35;101971.75;;;27.34;41.43
72063;BME280;59929;43.546;-5.702;2022-09-21T13:57:13;101970.59;;;34.99;28.79
72063;BME280;59929;43.546;-5.702;2022-09-21T13:59:41;101968.28;;;39.26;22.17
72063;BME280;59929;43.546;-5.702;2022-09-21T14:02:23;101957.50;;;42.95;17.58
72063;BME280;59929;43.546;-5.702;2022-09-21T14:04:52;101945.28;;;45.57;14.63
72063;BME280;59929;43.546;-5.702;2022-09-21T14:07:18;101954.50;;;47.15;13.00
72063;BME280;59929;43.546;-5.702;2022-09-21T14:09:56;101949.22;;;49.80;11.50